sensor_id;sensor_type;location;lat;lon;timestamp;temperature;humidity
21259;DHT22;10787;53.364;-1.480;2023-06-14T00:00:19;17.20;1.00
21259;DHT22;10787;53.364;-1.480;2023-06-14T00:03:04;17.10;1.00
21259;DHT22;10787;53.364;-1.480;2023-06-14T00:05:49;17.10;1.00
21259;DHT22;10787;53.364;-1.480;2023-06-14T00:08:33;17.00;1.00
21259;DHT22;10787;53.364;-1.480;2023-06-14T00:11:17;17.00;1.00
21259;DHT22;10787;53.364;-1.480;2023-06-14T00:14:01;16.90;1.00
21259;DHT22;10787;53.364;-1.480;2023-06-14T00:16:47;16.80;1.00
21259;DHT22;10787;53.364;-1.480;2023-06-14T00:19:32;16.80;1.00
21259;DHT22;10787;53.364;-1.480;2023-06-14T00:22:18;16.80;1.00
21259;DHT22;10787;53.364;-1.480;2023-06-14T00:25:04;16.80;1.00
21259;DHT22;10787;53.364;-1.480;2023-06-14T00:27:49;16.80;1.00
21259;DHT22;10787;53.364;-1.480;2023-06-14T00:30:33;16.80;1.00
21259;DHT22;10787;53.364;-1.480;2023-06-14T00:33:18;16.80;1.00
21259;DHT22;10787;53.364;-1.480;2023-06-14T00:36:02;16.70;1.00
21259;DHT22;10787;53.364;-1.480;2023-06-14T00:38:46;16.70;1.00
21259;DHT22;10787;53.364;-1.480;2023-06-14T00:41:31;16.70;1.00
21259;DHT22;10787;53.364;-1.480;2023-06-14T00:44:16;16.60;1.00
21259;DHT22;10787;53.364;-1.480;2023-06-14T00:47:01;16.60;1.00
21259;DHT22;10787;53.364;-1.480;2023-06-14T00:49:47;16.60;1.00
21259;DHT22;10787;53.364;-1.480;2023-06-14T00:52:32;16.50;1.00
21259;DHT22;10787;53.364;-1.480;2023-06-14T00:55:16;16.40;1.00
21259;DHT22;10787;53.364;-1.480;2023-06-14T00:58:00;16.30;1.00
21259;DHT22;10787;53.364;-1.480;2023-06-14T01:00:45;16.30;1.00
21259;DHT22;10787;53.364;-1.480;2023-06-14T01:03:29;16.20;1.00
21259;DHT22;10787;53.364;-1.480;2023-06-14T01:06:27;16.20;1.00
21259;DHT22;10787;53.364;-1.480;2023-06-14T01:09:32;16.10;1.00
21259;DHT22;10787;53.364;-1.480;2023-06-14T01:12:37;16.10;1.00
21259;DHT22;10787;53.364;-1.480;2023-06-14T01:15:23;16.00;1.00
21259;DHT22;10787;53.364;-1.480;2023-06-14T01:18:07;15.90;1.00
21259;DHT22;10787;53.364;-1.480;2023-06-14T01:20:52;15.90;1.00
21259;DHT22;10787;53.364;-1.480;2023-06-14T01:23:38;15.90;1.00
21259;DHT22;10787;53.364;-1.480;2023-06-14T01:26:23;15.90;1.00
21259;DHT22;10787;53.364;-1.480;2023-06-14T01:29:07;15.90;1.00
21259;DHT22;10787;53.364;-1.480;2023-06-14T01:31:53;15.80;1.00
21259;DHT22;10787;53.364;-1.480;2023-06-14T01:34:38;15.80;1.00
21259;DHT22;10787;53.364;-1.480;2023-06-14T01:37:23;15.80;1.00
21259;DHT22;10787;53.364;-1.480;2023-06-14T01:40:08;15.70;1.00
21259;DHT22;10787;53.364;-1.480;2023-06-14T01:42:54;15.60;1.00
21259;DHT22;10787;53.364;-1.480;2023-06-14T01:45:40;15.60;1.00
21259;DHT22;10787;53.364;-1.480;2023-06-14T01:48:26;15.60;1.00
21259;DHT22;10787;53.364;-1.480;2023-06-14T01:51:10;15.50;1.00
21259;DHT22;10787;53.364;-1.480;2023-06-14T01:53:54;15.40;1.00
21259;DHT22;10787;53.364;-1.480;2023-06-14T01:56:39;15.40;1.00
21259;DHT22;10787;53.364;-1.480;2023-06-14T01:59:23;15.30;1.00
21259;DHT22;10787;53.364;-1.480;2023-06-14T02:02:07;15.30;1.00
21259;DHT22;10787;53.364;-1.480;2023-06-14T02:04:53;15.30;1.00
21259;DHT22;10787;53.364;-1.480;2023-06-14T02:07:41;15.20;1.00
21259;DHT22;10787;53.364;-1.480;2023-06-14T02:10:25;15.20;1.00
21259;DHT22;10787;53.364;-1.480;2023-06-14T02:13:09;15.20;1.00
21259;DHT22;10787;53.364;-1.480;2023-06-14T02:15:54;15.20;1.00
21259;DHT22;10787;53.364;-1.480;2023-06-14T02:18:38;15.10;1.00
21259;DHT22;10787;53.364;-1.480;2023-06-14T02:21:22;15.10;1.00
21259;DHT22;10787;53.364;-1.480;2023-06-14T02:24:07;15.00;1.00
21259;DHT22;10787;53.364;-1.480;2023-06-14T02:26:51;15.00;1.00
21259;DHT22;10787;53.364;-1.480;2023-06-14T02:29:35;15.00;1.00
21259;DHT22;10787;53.364;-1.480;2023-06-14T02:32:20;15.00;1.00
21259;DHT22;10787;53.364;-1.480;2023-06-14T02:35:05;14.90;1.00
21259;DHT22;10787;53.364;-1.480;2023-06-14T02:37:50;14.90;1.00
21259;DHT22;10787;53.364;-1.480;2023-06-14T02:40:36;14.90;1.00
21259;DHT22;10787;53.364;-1.480;2023-06-14T02:43:20;14.90;1.00
21259;DHT22;10787;53.364;-1.480;2023-06-14T02:46:05;14.80;1.00
21259;DHT22;10787;53.364;-1.480;2023-06-14T02:48:50;14.80;1.00
21259;DHT22;10787;53.364;-1.480;2023-06-14T02:51:34;14.80;1.00
21259;DHT22;10787;53.364;-1.480;2023-06-14T02:54:18;14.80;1.00
21259;DHT22;10787;53.364;-1.480;2023-06-14T02:57:02;14.70;1.00
21259;DHT22;10787;53.364;-1.480;2023-06-14T02:59:47;14.80;1.00
21259;DHT22;10787;53.364;-1.480;2023-06-14T03:02:31;14.70;1.00
21259;DHT22;10787;53.364;-1.480;2023-06-14T03:05:15;14.60;1.00
21259;DHT22;10787;53.364;-1.480;2023-06-14T03:08:00;14.60;1.00
21259;DHT22;10787;53.364;-1.480;2023-06-14T03:10:46;14.60;1.00
21259;DHT22;10787;53.364;-1.480;2023-06-14T03:13:31;14.50;1.00
21259;DHT22;10787;53.364;-1.480;2023-06-14T03:16:19;14.40;1.00
21259;DHT22;10787;53.364;-1.480;2023-06-14T03:19:05;14.40;1.00
21259;DHT22;10787;53.364;-1.480;2023-06-14T03:21:49;14.40;1.00
21259;DHT22;10787;53.364;-1.480;2023-06-14T03:24:33;14.30;1.00
21259;DHT22;10787;53.364;-1.480;2023-06-14T03:27:20;14.30;1.00
21259;DHT22;10787;53.364;-1.480;2023-06-14T03:30:05;14.30;1.00
21259;DHT22;10787;53.364;-1.480;2023-06-14T03:32:49;14.20;1.00
21259;DHT22;10787;53.364;-1.480;2023-06-14T03:35:36;14.20;1.00
21259;DHT22;10787;53.364;-1.480;2023-06-14T03:38:21;14.20;1.00
21259;DHT22;10787;53.364;-1.480;2023-06-14T03:41:06;14.20;1.00
21259;DHT22;10787;53.364;-1.480;2023-06-14T03:43:50;14.10;1.00
21259;DHT22;10787;53.364;-1.480;2023-06-14T03:46:34;14.10;1.00
21259;DHT22;10787;53.364;-1.480;2023-06-14T03:49:18;14.10;1.00
21259;DHT22;10787;53.364;-1.480;2023-06-14T03:52:03;14.10;1.00
21259;DHT22;10787;53.364;-1.480;2023-06-14T03:54:48;14.10;1.00
21259;DHT22;10787;53.364;-1.480;2023-06-14T03:57:32;14.10;1.00
21259;DHT22;10787;53.364;-1.480;2023-06-14T04:00:17;14.10;1.00
21259;DHT22;10787;53.364;-1.480;2023-06-14T04:03:02;14.10;1.00
21259;DHT22;10787;53.364;-1.480;2023-06-14T04:05:48;14.10;1.00
21259;DHT22;10787;53.364;-1.480;2023-06-14T04:08:33;14.10;1.00
21259;DHT22;10787;53.364;-1.480;2023-06-14T04:11:18;14.20;1.00
21259;DHT22;10787;53.364;-1.480;2023-06-14T04:14:02;14.10;1.00
21259;DHT22;10787;53.364;-1.480;2023-06-14T04:16:47;14.20;1.00
21259;DHT22;10787;53.364;-1.480;2023-06-14T04:19:32;14.20;1.00
21259;DHT22;10787;53.364;-1.480;2023-06-14T04:22:17;14.20;1.00
21259;DHT22;10787;53.364;-1.480;2023-06-14T04:25:02;14.20;1.00
21259;DHT22;10787;53.364;-1.480;2023-06-14T04:27:47;14.20;1.00
21259;DHT22;10787;53.364;-1.480;2023-06-14T04:30:31;14.20;1.00
21259;DHT22;10787;53.364;-1.480;2023-06-14T04:33:15;14.20;1.00
21259;DHT22;10787;53.364;-1.480;2023-06-14T04:36:01;14.20;1.00
21259;DHT22;10787;53.364;-1.480;2023-06-14T04:38:46;14.20;1.00
21259;DHT22;10787;53.364;-1.480;2023-06-14T04:41:30;14.20;1.00
21259;DHT22;10787;53.364;-1.480;2023-06-14T04:44:15;14.20;1.00
21259;DHT22;10787;53.364;-1.480;2023-06-14T04:47:00;14.20;1.00
21259;DHT22;10787;53.364;-1.480;2023-06-14T04:49:45;14.20;1.00
21259;DHT22;10787;53.364;-1.480;2023-06-14T04:52:30;14.20;1.00
21259;DHT22;10787;53.364;-1.480;2023-06-14T04:55:15;14.20;1.00
21259;DHT22;10787;53.364;-1.480;2023-06-14T04:58:00;14.30;1.00
21259;DHT22;10787;53.364;-1.480;2023-06-14T05:00:44;14.30;1.00
21259;DHT22;10787;53.364;-1.480;2023-06-14T05:03:28;14.20;1.00
21259;DHT22;10787;53.364;-1.480;2023-06-14T05:06:15;14.30;1.00
21259;DHT22;10787;53.364;-1.480;2023-06-14T05:09:02;14.30;1.00
21259;DHT22;10787;53.364;-1.480;2023-06-14T05:11:47;14.40;1.00
21259;DHT22;10787;53.364;-1.480;2023-06-14T05:14:31;14.30;1.00
21259;DHT22;10787;53.364;-1.480;2023-06-14T05:17:15;14.40;1.00
21259;DHT22;10787;53.364;-1.480;2023-06-14T05:20:00;14.40;1.00
21259;DHT22;10787;53.364;-1.480;2023-06-14T05:22:45;14.50;1.00
21259;DHT22;10787;53.364;-1.480;2023-06-14T05:25:29;14.50;1.00
21259;DHT22;10787;53.364;-1.480;2023-06-14T05:28:13;14.50;1.00
21259;DHT22;10787;53.364;-1.480;2023-06-14T05:30:57;14.50;1.00
21259;DHT22;10787;53.364;-1.480;2023-06-14T05:33:42;14.70;1.00
21259;DHT22;10787;53.364;-1.480;2023-06-14T05:36:26;14.80;1.00
21259;DHT22;10787;53.364;-1.480;2023-06-14T05:39:12;14.90;1.00
21259;DHT22;10787;53.364;-1.480;2023-06-14T05:41:56;15.00;1.00
21259;DHT22;10787;53.364;-1.480;2023-06-14T05:44:40;15.10;1.00
21259;DHT22;10787;53.364;-1.480;2023-06-14T05:47:24;15.20;1.00
21259;DHT22;10787;53.364;-1.480;2023-06-14T05:50:10;15.30;1.00
21259;DHT22;10787;53.364;-1.480;2023-06-14T05:52:54;15.30;1.00
21259;DHT22;10787;53.364;-1.480;2023-06-14T05:55:38;15.30;1.00
21259;DHT22;10787;53.364;-1.480;2023-06-14T05:58:22;15.40;1.00
21259;DHT22;10787;53.364;-1.480;2023-06-14T06:01:07;15.50;1.00
21259;DHT22;10787;53.364;-1.480;2023-06-14T06:03:52;15.50;1.00
21259;DHT22;10787;53.364;-1.480;2023-06-14T06:06:36;15.60;1.00
21259;DHT22;10787;53.364;-1.480;2023-06-14T06:09:20;15.60;1.00
21259;DHT22;10787;53.364;-1.480;2023-06-14T06:12:06;15.70;1.00
21259;DHT22;10787;53.364;-1.480;2023-06-14T06:14:51;15.70;1.00
21259;DHT22;10787;53.364;-1.480;2023-06-14T06:17:35;15.80;1.00
21259;DHT22;10787;53.364;-1.480;2023-06-14T06:20:19;15.90;1.00
21259;DHT22;10787;53.364;-1.480;2023-06-14T06:23:05;15.90;1.00
21259;DHT22;10787;53.364;-1.480;2023-06-14T06:25:50;16.00;1.00
21259;DHT22;10787;53.364;-1.480;2023-06-14T06:28:34;16.10;1.00
21259;DHT22;10787;53.364;-1.480;2023-06-14T06:31:19;16.10;1.00
21259;DHT22;10787;53.364;-1.480;2023-06-14T06:34:06;16.20;1.00
21259;DHT22;10787;53.364;-1.480;2023-06-14T06:36:50;16.30;1.00
21259;DHT22;10787;53.364;-1.480;2023-06-14T06:39:35;16.30;1.00
21259;DHT22;10787;53.364;-1.480;2023-06-14T06:42:22;16.40;1.00
21259;DHT22;10787;53.364;-1.480;2023-06-14T06:45:09;16.50;1.00
21259;DHT22;10787;53.364;-1.480;2023-06-14T06:47:53;16.60;1.00
21259;DHT22;10787;53.364;-1.480;2023-06-14T06:50:38;16.60;1.00
21259;DHT22;10787;53.364;-1.480;2023-06-14T06:53:25;16.60;1.00
21259;DHT22;10787;53.364;-1.480;2023-06-14T06:56:09;16.50;1.00
21259;DHT22;10787;53.364;-1.480;2023-06-14T06:58:54;16.60;1.00
21259;DHT22;10787;53.364;-1.480;2023-06-14T07:01:40;16.70;1.00
21259;DHT22;10787;53.364;-1.480;2023-06-14T07:04:24;16.80;4.70
21259;DHT22;10787;53.364;-1.480;2023-06-14T07:07:10;17.00;6.00
21259;DHT22;10787;53.364;-1.480;2023-06-14T07:09:54;17.00;1.50
21259;DHT22;10787;53.364;-1.480;2023-06-14T07:12:41;17.00;3.10
21259;DHT22;10787;53.364;-1.480;2023-06-14T07:15:25;17.10;3.20
21259;DHT22;10787;53.364;-1.480;2023-06-14T07:18:10;17.20;4.20
21259;DHT22;10787;53.364;-1.480;2023-06-14T07:20:57;17.20;7.30
21259;DHT22;10787;53.364;-1.480;2023-06-14T07:23:41;17.30;7.90
21259;DHT22;10787;53.364;-1.480;2023-06-14T07:26:26;17.40;11.10
21259;DHT22;10787;53.364;-1.480;2023-06-14T07:29:10;17.50;10.70
21259;DHT22;10787;53.364;-1.480;2023-06-14T07:31:55;17.50;11.00
21259;DHT22;10787;53.364;-1.480;2023-06-14T07:34:39;17.60;13.90
21259;DHT22;10787;53.364;-1.480;2023-06-14T07:37:23;17.60;14.10
21259;DHT22;10787;53.364;-1.480;2023-06-14T07:40:10;17.80;18.70
21259;DHT22;10787;53.364;-1.480;2023-06-14T07:42:55;17.80;21.00
21259;DHT22;10787;53.364;-1.480;2023-06-14T07:45:42;18.00;22.60
21259;DHT22;10787;53.364;-1.480;2023-06-14T07:48:32;18.10;22.60
21259;DHT22;10787;53.364;-1.480;2023-06-14T07:51:17;18.10;24.50
21259;DHT22;10787;53.364;-1.480;2023-06-14T07:54:03;18.30;26.80
21259;DHT22;10787;53.364;-1.480;2023-06-14T07:56:47;18.40;27.90
21259;DHT22;10787;53.364;-1.480;2023-06-14T07:59:35;18.60;31.70
21259;DHT22;10787;53.364;-1.480;2023-06-14T08:02:19;18.70;33.60
21259;DHT22;10787;53.364;-1.480;2023-06-14T08:05:04;18.80;36.10
21259;DHT22;10787;53.364;-1.480;2023-06-14T08:07:57;18.90;37.70
21259;DHT22;10787;53.364;-1.480;2023-06-14T08:10:42;19.00;40.40
21259;DHT22;10787;53.364;-1.480;2023-06-14T08:13:26;19.10;42.70
21259;DHT22;10787;53.364;-1.480;2023-06-14T08:16:10;19.20;48.10
21259;DHT22;10787;53.364;-1.480;2023-06-14T08:18:55;19.30;46.00
21259;DHT22;10787;53.364;-1.480;2023-06-14T08:21:39;19.30;48.30
21259;DHT22;10787;53.364;-1.480;2023-06-14T08:24:26;19.50;51.20
21259;DHT22;10787;53.364;-1.480;2023-06-14T08:27:11;19.70;55.10
21259;DHT22;10787;53.364;-1.480;2023-06-14T08:29:55;19.80;56.00
21259;DHT22;10787;53.364;-1.480;2023-06-14T08:32:40;19.80;56.20
21259;DHT22;10787;53.364;-1.480;2023-06-14T08:35:24;19.80;57.60
21259;DHT22;10787;53.364;-1.480;2023-06-14T08:38:10;20.00;60.00
21259;DHT22;10787;53.364;-1.480;2023-06-14T08:40:57;20.00;60.70
21259;DHT22;10787;53.364;-1.480;2023-06-14T08:43:42;20.20;65.00
21259;DHT22;10787;53.364;-1.480;2023-06-14T08:46:26;20.20;65.20
21259;DHT22;10787;53.364;-1.480;2023-06-14T08:49:16;20.30;68.40
21259;DHT22;10787;53.364;-1.480;2023-06-14T08:52:01;20.50;73.90
21259;DHT22;10787;53.364;-1.480;2023-06-14T08:54:46;20.70;77.30
21259;DHT22;10787;53.364;-1.480;2023-06-14T08:57:33;20.80;77.20
21259;DHT22;10787;53.364;-1.480;2023-06-14T09:00:22;20.90;79.00
21259;DHT22;10787;53.364;-1.480;2023-06-14T09:03:07;21.00;79.80
21259;DHT22;10787;53.364;-1.480;2023-06-14T09:05:57;21.00;80.50
21259;DHT22;10787;53.364;-1.480;2023-06-14T09:08:44;21.10;79.90
21259;DHT22;10787;53.364;-1.480;2023-06-14T09:11:30;21.10;82.60
21259;DHT22;10787;53.364;-1.480;2023-06-14T09:14:14;21.20;80.40
21259;DHT22;10787;53.364;-1.480;2023-06-14T09:16:58;21.30;83.00
21259;DHT22;10787;53.364;-1.480;2023-06-14T09:19:45;21.40;87.90
21259;DHT22;10787;53.364;-1.480;2023-06-14T09:22:30;21.60;90.00
21259;DHT22;10787;53.364;-1.480;2023-06-14T09:25:15;21.80;90.40
21259;DHT22;10787;53.364;-1.480;2023-06-14T09:27:59;21.90;90.60
21259;DHT22;10787;53.364;-1.480;2023-06-14T09:30:44;22.00;90.50
21259;DHT22;10787;53.364;-1.480;2023-06-14T09:33:44;22.10;90.90
21259;DHT22;10787;53.364;-1.480;2023-06-14T09:36:34;22.30;11.80
21259;DHT22;10787;53.364;-1.480;2023-06-14T09:39:19;22.40;16.70
21259;DHT22;10787;53.364;-1.480;2023-06-14T09:42:16;22.60;13.60
21259;DHT22;10787;53.364;-1.480;2023-06-14T09:45:02;22.80;9.90
21259;DHT22;10787;53.364;-1.480;2023-06-14T09:47:49;22.80;5.50
21259;DHT22;10787;53.364;-1.480;2023-06-14T09:50:34;22.90;1.00
21259;DHT22;10787;53.364;-1.480;2023-06-14T09:53:21;23.00;1.00
21259;DHT22;10787;53.364;-1.480;2023-06-14T09:56:10;23.20;1.00
21259;DHT22;10787;53.364;-1.480;2023-06-14T09:58:56;23.40;1.00
21259;DHT22;10787;53.364;-1.480;2023-06-14T10:01:42;23.50;1.00
21259;DHT22;10787;53.364;-1.480;2023-06-14T10:04:28;23.50;1.00
21259;DHT22;10787;53.364;-1.480;2023-06-14T10:07:19;23.60;1.00
21259;DHT22;10787;53.364;-1.480;2023-06-14T10:10:04;23.70;1.00
21259;DHT22;10787;53.364;-1.480;2023-06-14T10:12:49;23.70;1.00
21259;DHT22;10787;53.364;-1.480;2023-06-14T10:21:49;24.00;1.00
21259;DHT22;10787;53.364;-1.480;2023-06-14T10:24:42;24.20;1.00
21259;DHT22;10787;53.364;-1.480;2023-06-14T10:27:26;24.40;1.00
21259;DHT22;10787;53.364;-1.480;2023-06-14T10:30:14;24.50;1.00
21259;DHT22;10787;53.364;-1.480;2023-06-14T10:33:07;24.70;1.00
21259;DHT22;10787;53.364;-1.480;2023-06-14T10:36:24;24.80;1.00
21259;DHT22;10787;53.364;-1.480;2023-06-14T10:39:15;25.00;1.00
21259;DHT22;10787;53.364;-1.480;2023-06-14T10:42:01;25.20;1.00
21259;DHT22;10787;53.364;-1.480;2023-06-14T10:44:55;25.30;1.00
21259;DHT22;10787;53.364;-1.480;2023-06-14T10:47:40;25.40;1.00
21259;DHT22;10787;53.364;-1.480;2023-06-14T10:50:28;25.30;1.00
21259;DHT22;10787;53.364;-1.480;2023-06-14T10:53:22;25.40;1.00
21259;DHT22;10787;53.364;-1.480;2023-06-14T10:56:08;25.30;1.00
21259;DHT22;10787;53.364;-1.480;2023-06-14T10:58:52;25.20;1.00
21259;DHT22;10787;53.364;-1.480;2023-06-14T11:01:49;25.40;1.00
21259;DHT22;10787;53.364;-1.480;2023-06-14T11:04:49;25.60;1.00
21259;DHT22;10787;53.364;-1.480;2023-06-14T11:10:44;26.00;1.00
21259;DHT22;10787;53.364;-1.480;2023-06-14T11:13:31;26.10;1.00
21259;DHT22;10787;53.364;-1.480;2023-06-14T11:16:17;26.30;1.00
21259;DHT22;10787;53.364;-1.480;2023-06-14T11:19:02;26.40;1.00
21259;DHT22;10787;53.364;-1.480;2023-06-14T11:21:48;26.30;1.00
21259;DHT22;10787;53.364;-1.480;2023-06-14T11:24:33;26.50;1.00
21259;DHT22;10787;53.364;-1.480;2023-06-14T11:27:17;26.60;1.00
21259;DHT22;10787;53.364;-1.480;2023-06-14T11:30:02;26.70;1.00
21259;DHT22;10787;53.364;-1.480;2023-06-14T11:32:53;26.90;1.00
21259;DHT22;10787;53.364;-1.480;2023-06-14T11:35:37;27.00;1.00
21259;DHT22;10787;53.364;-1.480;2023-06-14T11:38:21;27.10;1.00
21259;DHT22;10787;53.364;-1.480;2023-06-14T11:41:06;27.10;1.00
21259;DHT22;10787;53.364;-1.480;2023-06-14T11:43:54;27.10;1.00
21259;DHT22;10787;53.364;-1.480;2023-06-14T11:46:38;27.20;1.00
21259;DHT22;10787;53.364;-1.480;2023-06-14T11:49:23;27.40;1.00
21259;DHT22;10787;53.364;-1.480;2023-06-14T11:52:09;27.30;1.00
21259;DHT22;10787;53.364;-1.480;2023-06-14T11:54:54;27.50;1.00
21259;DHT22;10787;53.364;-1.480;2023-06-14T11:57:38;27.70;1.00
21259;DHT22;10787;53.364;-1.480;2023-06-14T12:00:26;28.50;1.00
21259;DHT22;10787;53.364;-1.480;2023-06-14T12:03:12;29.50;1.00
21259;DHT22;10787;53.364;-1.480;2023-06-14T12:06:07;30.40;1.00
21259;DHT22;10787;53.364;-1.480;2023-06-14T12:08:56;30.80;1.00
21259;DHT22;10787;53.364;-1.480;2023-06-14T12:11:40;31.30;1.00
21259;DHT22;10787;53.364;-1.480;2023-06-14T12:14:31;31.80;1.00
21259;DHT22;10787;53.364;-1.480;2023-06-14T12:17:17;32.50;1.00
21259;DHT22;10787;53.364;-1.480;2023-06-14T12:20:29;33.10;1.00
21259;DHT22;10787;53.364;-1.480;2023-06-14T12:23:13;33.60;1.00
21259;DHT22;10787;53.364;-1.480;2023-06-14T12:25:59;33.80;1.00
21259;DHT22;10787;53.364;-1.480;2023-06-14T12:28:45;34.20;1.00
21259;DHT22;10787;53.364;-1.480;2023-06-14T12:31:29;34.70;1.00
21259;DHT22;10787;53.364;-1.480;2023-06-14T12:34:13;34.80;1.00
21259;DHT22;10787;53.364;-1.480;2023-06-14T12:36:57;34.90;1.00
21259;DHT22;10787;53.364;-1.480;2023-06-14T12:39:41;35.10;1.00
21259;DHT22;10787;53.364;-1.480;2023-06-14T12:42:26;35.40;1.00
21259;DHT22;10787;53.364;-1.480;2023-06-14T12:45:10;35.30;1.00
21259;DHT22;10787;53.364;-1.480;2023-06-14T12:47:54;35.30;1.00
21259;DHT22;10787;53.364;-1.480;2023-06-14T12:50:39;35.10;1.00
21259;DHT22;10787;53.364;-1.480;2023-06-14T12:53:24;35.00;1.00
21259;DHT22;10787;53.364;-1.480;2023-06-14T12:56:08;35.60;1.00
21259;DHT22;10787;53.364;-1.480;2023-06-14T12:59:02;35.30;1.00
21259;DHT22;10787;53.364;-1.480;2023-06-14T13:01:46;35.30;1.00
21259;DHT22;10787;53.364;-1.480;2023-06-14T13:04:33;35.60;1.00
21259;DHT22;10787;53.364;-1.480;2023-06-14T13:07:18;36.40;1.00
21259;DHT22;10787;53.364;-1.480;2023-06-14T13:10:03;36.40;1.00
21259;DHT22;10787;53.364;-1.480;2023-06-14T13:12:50;36.30;1.00
21259;DHT22;10787;53.364;-1.480;2023-06-14T13:15:34;36.90;1.00
21259;DHT22;10787;53.364;-1.480;2023-06-14T13:18:19;37.30;1.00
21259;DHT22;10787;53.364;-1.480;2023-06-14T13:21:03;37.60;1.00
21259;DHT22;10787;53.364;-1.480;2023-06-14T13:23:50;37.50;1.00
21259;DHT22;10787;53.364;-1.480;2023-06-14T13:26:35;37.90;1.00
21259;DHT22;10787;53.364;-1.480;2023-06-14T13:29:22;38.10;1.00
21259;DHT22;10787;53.364;-1.480;2023-06-14T13:32:07;37.90;1.00
21259;DHT22;10787;53.364;-1.480;2023-06-14T13:34:54;38.00;1.00
21259;DHT22;10787;53.364;-1.480;2023-06-14T13:37:41;37.60;1.00
21259;DHT22;10787;53.364;-1.480;2023-06-14T13:40:26;37.40;1.00
21259;DHT22;10787;53.364;-1.480;2023-06-14T13:43:13;38.10;1.00
21259;DHT22;10787;53.364;-1.480;2023-06-14T13:45:58;38.10;1.00
21259;DHT22;10787;53.364;-1.480;2023-06-14T13:48:45;38.60;1.00
21259;DHT22;10787;53.364;-1.480;2023-06-14T13:51:34;38.80;1.00
21259;DHT22;10787;53.364;-1.480;2023-06-14T13:54:22;38.40;1.00
21259;DHT22;10787;53.364;-1.480;2023-06-14T13:57:07;38.50;1.00
21259;DHT22;10787;53.364;-1.480;2023-06-14T13:59:55;38.70;1.00
21259;DHT22;10787;53.364;-1.480;2023-06-14T14:02:47;38.40;1.00
21259;DHT22;10787;53.364;-1.480;2023-06-14T14:05:31;38.90;1.00
21259;DHT22;10787;53.364;-1.480;2023-06-14T14:08:16;39.00;1.00
21259;DHT22;10787;53.364;-1.480;2023-06-14T14:11:00;38.00;1.00
21259;DHT22;10787;53.364;-1.480;2023-06-14T14:13:45;38.10;1.00
21259;DHT22;10787;53.364;-1.480;2023-06-14T14:16:33;37.80;1.00
21259;DHT22;10787;53.364;-1.480;2023-06-14T14:19:22;38.00;1.00
21259;DHT22;10787;53.364;-1.480;2023-06-14T14:22:08;38.60;1.00
21259;DHT22;10787;53.364;-1.480;2023-06-14T14:24:58;38.50;1.00
21259;DHT22;10787;53.364;-1.480;2023-06-14T14:27:50;38.70;1.00
21259;DHT22;10787;53.364;-1.480;2023-06-14T14:30:34;38.80;1.00
21259;DHT22;10787;53.364;-1.480;2023-06-14T14:33:19;38.70;1.00
21259;DHT22;10787;53.364;-1.480;2023-06-14T14:36:06;38.70;1.00
21259;DHT22;10787;53.364;-1.480;2023-06-14T14:38:51;38.30;1.00
21259;DHT22;10787;53.364;-1.480;2023-06-14T14:41:39;38.60;1.00
21259;DHT22;10787;53.364;-1.480;2023-06-14T14:44:25;38.90;1.00
21259;DHT22;10787;53.364;-1.480;2023-06-14T14:47:19;39.20;1.00
21259;DHT22;10787;53.364;-1.480;2023-06-14T14:50:03;39.20;1.00
21259;DHT22;10787;53.364;-1.480;2023-06-14T14:52:50;38.70;1.00
21259;DHT22;10787;53.364;-1.480;2023-06-14T14:55:37;39.10;1.00
21259;DHT22;10787;53.364;-1.480;2023-06-14T14:58:23;39.20;1.00
21259;DHT22;10787;53.364;-1.480;2023-06-14T15:01:07;39.30;1.00
21259;DHT22;10787;53.364;-1.480;2023-06-14T15:03:51;39.30;1.00
21259;DHT22;10787;53.364;-1.480;2023-06-14T15:06:37;39.40;1.00
21259;DHT22;10787;53.364;-1.480;2023-06-14T15:09:23;39.30;1.00
21259;DHT22;10787;53.364;-1.480;2023-06-14T15:12:08;39.60;1.00
21259;DHT22;10787;53.364;-1.480;2023-06-14T15:14:54;39.90;1.00
21259;DHT22;10787;53.364;-1.480;2023-06-14T15:17:39;40.00;1.00
21259;DHT22;10787;53.364;-1.480;2023-06-14T15:20:23;40.20;1.00
21259;DHT22;10787;53.364;-1.480;2023-06-14T15:23:08;40.20;1.00
21259;DHT22;10787;53.364;-1.480;2023-06-14T15:25:52;40.30;1.00
21259;DHT22;10787;53.364;-1.480;2023-06-14T15:28:36;40.70;1.00
21259;DHT22;10787;53.364;-1.480;2023-06-14T15:31:20;40.40;1.00
21259;DHT22;10787;53.364;-1.480;2023-06-14T15:34:04;40.30;1.00
21259;DHT22;10787;53.364;-1.480;2023-06-14T15:36:49;40.20;1.00
21259;DHT22;10787;53.364;-1.480;2023-06-14T15:39:34;40.30;1.00
21259;DHT22;10787;53.364;-1.480;2023-06-14T15:42:18;40.10;1.00
21259;DHT22;10787;53.364;-1.480;2023-06-14T15:45:03;40.50;1.00
21259;DHT22;10787;53.364;-1.480;2023-06-14T15:47:48;40.90;1.00
21259;DHT22;10787;53.364;-1.480;2023-06-14T15:50:32;40.70;1.00
21259;DHT22;10787;53.364;-1.480;2023-06-14T15:53:16;40.70;1.00
21259;DHT22;10787;53.364;-1.480;2023-06-14T15:56:00;40.30;1.00
21259;DHT22;10787;53.364;-1.480;2023-06-14T15:58:44;40.20;1.00
21259;DHT22;10787;53.364;-1.480;2023-06-14T16:01:28;40.00;1.00
21259;DHT22;10787;53.364;-1.480;2023-06-14T16:04:12;40.10;1.00
21259;DHT22;10787;53.364;-1.480;2023-06-14T16:06:57;39.40;1.00
21259;DHT22;10787;53.364;-1.480;2023-06-14T16:09:41;39.70;1.00
21259;DHT22;10787;53.364;-1.480;2023-06-14T16:12:25;39.90;1.00
21259;DHT22;10787;53.364;-1.480;2023-06-14T16:15:09;40.00;1.00
21259;DHT22;10787;53.364;-1.480;2023-06-14T16:17:54;39.80;1.00
21259;DHT22;10787;53.364;-1.480;2023-06-14T16:20:39;39.70;1.00
21259;DHT22;10787;53.364;-1.480;2023-06-14T16:23:23;40.00;1.00
21259;DHT22;10787;53.364;-1.480;2023-06-14T16:26:10;40.30;1.00
21259;DHT22;10787;53.364;-1.480;2023-06-14T16:28:57;40.20;1.00
21259;DHT22;10787;53.364;-1.480;2023-06-14T16:31:41;40.00;1.00
21259;DHT22;10787;53.364;-1.480;2023-06-14T16:34:26;40.30;1.00
21259;DHT22;10787;53.364;-1.480;2023-06-14T16:37:10;40.40;1.00
21259;DHT22;10787;53.364;-1.480;2023-06-14T16:39:54;40.30;1.00
21259;DHT22;10787;53.364;-1.480;2023-06-14T16:42:39;40.40;1.00
21259;DHT22;10787;53.364;-1.480;2023-06-14T16:45:23;39.80;1.00
21259;DHT22;10787;53.364;-1.480;2023-06-14T16:48:07;39.60;1.00
21259;DHT22;10787;53.364;-1.480;2023-06-14T16:50:52;39.90;1.00
21259;DHT22;10787;53.364;-1.480;2023-06-14T16:53:36;39.80;1.00
21259;DHT22;10787;53.364;-1.480;2023-06-14T16:56:21;39.60;1.00
21259;DHT22;10787;53.364;-1.480;2023-06-14T16:59:10;39.80;1.00
21259;DHT22;10787;53.364;-1.480;2023-06-14T17:02:03;39.70;1.00
21259;DHT22;10787;53.364;-1.480;2023-06-14T17:04:48;39.50;1.00
21259;DHT22;10787;53.364;-1.480;2023-06-14T17:07:32;39.00;1.00
21259;DHT22;10787;53.364;-1.480;2023-06-14T17:10:17;38.90;1.00
21259;DHT22;10787;53.364;-1.480;2023-06-14T17:13:01;39.10;1.00
21259;DHT22;10787;53.364;-1.480;2023-06-14T17:15:45;39.10;1.00
21259;DHT22;10787;53.364;-1.480;2023-06-14T17:18:30;39.10;1.00
21259;DHT22;10787;53.364;-1.480;2023-06-14T17:21:15;38.30;1.00
21259;DHT22;10787;53.364;-1.480;2023-06-14T17:23:59;37.70;1.00
21259;DHT22;10787;53.364;-1.480;2023-06-14T17:26:44;38.10;1.00
21259;DHT22;10787;53.364;-1.480;2023-06-14T17:29:28;37.80;1.00
21259;DHT22;10787;53.364;-1.480;2023-06-14T17:32:13;37.60;1.00
21259;DHT22;10787;53.364;-1.480;2023-06-14T17:34:57;37.90;1.00